Rencona, New Mexico
Current Conditions -  °F | °C
As of 5:53 AM on Saturday 25 Oct 2014 (Local Time) from KCQC Reporting Station
Clear Clear  
Wind Chill: 40°   Ceiling: Unl
Heat Index: 46°   Visibility: 10mi
Dew Point: 26°   Wind: 14mph
Humidity: 46%   Direction: 300°WNW
Pressure: 30.33"   Gusts: NA
Location:  35.3026°N, 105.662°W
Report Text: KCQC 251153Z AUTO 30012KT 10SM CLR 08/M03 A3033 RMK AO2 SLP198 T00781033 10117 20067 56002
Loading
Personal Weather Stations






























Interactive Weather Map
Tropical Storm Tracking
New forecast layout! Learn more

10-Day Weather Forecast

Advertisements
Track Severe Weather on mobile